Time;durP1;ratioP1;P1;durP2;ratioP2;P2;SDS_P1;SDS_P2;PMS_P1;PMS_P2;Temp;Humidity;BMP_temperature;BMP_pressure;BME280_temperature;BME280_humidity;BME280_pressure;Samples;Min_cycle;Max_cycle;Signal;HPM_P1;HPM_P2
2023/08/07 00:01:22;;;;;;;15.98;2.20;;;;;;;14.85;100.00;101424.59;5027378;28;20113;-62
2023/08/07 00:03:48;;;;;;;8.10;2.35;;;;;;;14.82;100.00;101415.91;5027350;28;20075;-63
2023/08/07 00:06:13;;;;;;;11.77;2.40;;;;;;;14.86;100.00;101422.78;5027711;28;20478;-63
2023/08/07 00:08:38;;;;;;;10.75;2.40;;;;;;;14.91;100.00;101429.63;5025875;28;20030;-61
2023/08/07 00:11:05;;;;;;;9.07;2.95;;;;;;;14.90;100.00;101424.41;5027672;28;20018;-63
2023/08/07 00:13:31;;;;;;;17.45;2.75;;;;;;;14.96;100.00;101425.94;5026506;28;20450;-64
2023/08/07 00:15:56;;;;;;;15.63;2.47;;;;;;;14.95;100.00;101414.44;5026167;28;20113;-61
2023/08/07 00:18:22;;;;;;;9.73;2.33;;;;;;;14.97;100.00;101430.28;5027424;28;20456;-65
2023/08/07 00:20:48;;;;;;;17.45;2.60;;;;;;;14.98;100.00;101432.00;5027396;28;20025;-65
2023/08/07 00:23:13;;;;;;;13.98;2.53;;;;;;;15.05;100.00;101425.50;5027104;28;20079;-64
2023/08/07 00:25:38;;;;;;;12.93;2.28;;;;;;;15.08;100.00;101420.06;5027153;28;20719;-64
2023/08/07 00:28:04;;;;;;;19.25;2.70;;;;;;;15.03;100.00;101438.00;5027670;28;20021;-65
2023/08/07 00:30:29;;;;;;;16.58;3.40;;;;;;;15.07;100.00;101428.97;5026039;28;20018;-65
2023/08/07 00:32:55;;;;;;;17.05;2.92;;;;;;;14.99;100.00;101429.28;5027162;28;20022;-63
2023/08/07 00:35:20;;;;;;;13.27;2.88;;;;;;;14.97;100.00;101422.34;5028035;28;20029;-65
2023/08/07 00:37:45;;;;;;;12.60;2.50;;;;;;;15.07;100.00;101423.66;5026935;28;20026;-64
2023/08/07 00:40:11;;;;;;;14.98;3.03;;;;;;;15.11;100.00;101427.91;5027151;28;20584;-64
2023/08/07 00:42:36;;;;;;;10.32;2.42;;;;;;;14.85;100.00;101443.19;5027146;28;20025;-64
2023/08/07 00:45:02;;;;;;;9.48;2.40;;;;;;;14.52;100.00;101464.81;5026476;28;20025;-66
2023/08/07 00:47:27;;;;;;;17.92;2.40;;;;;;;14.38;100.00;101445.03;5026862;28;20016;-65
2023/08/07 00:49:53;;;;;;;14.80;2.20;;;;;;;14.31;100.00;101440.91;5026326;28;20025;-62
2023/08/07 00:52:18;;;;;;;9.23;2.38;;;;;;;14.30;100.00;101448.91;5027269;28;20060;-65
2023/08/07 00:54:45;;;;;;;12.88;2.60;;;;;;;14.23;100.00;101453.59;5027882;28;20442;-64
2023/08/07 00:57:12;;;;;;;9.45;2.50;;;;;;;14.26;100.00;101443.75;5026047;28;20029;-64
2023/08/07 00:59:38;;;;;;;13.35;2.60;;;;;;;14.24;100.00;101440.28;5026096;28;20414;-63
2023/08/07 01:02:04;;;;;;;10.27;2.40;;;;;;;14.36;100.00;101453.97;5027114;28;20116;-65
2023/08/07 01:04:29;;;;;;;7.45;2.00;;;;;;;14.30;100.00;101460.38;5026500;28;20029;-64
2023/08/07 01:06:54;;;;;;;9.05;2.28;;;;;;;14.32;100.00;101449.72;5025479;28;20026;-65
2023/08/07 01:09:20;;;;;;;18.90;2.85;;;;;;;14.40;100.00;101453.81;5027372;28;20110;-65
2023/08/07 01:11:52;;;;;;;12.57;2.63;;;;;;;14.40;100.00;101452.94;5026687;28;20029;-65
2023/08/07 01:14:28;;;;;;;15.45;3.00;;;;;;;14.38;100.00;101450.34;5024759;28;20061;-63
2023/08/07 01:17:04;;;;;;;11.70;3.03;;;;;;;14.40;100.00;101445.84;5025287;28;20108;-64
2023/08/07 01:19:30;;;;;;;9.30;2.72;;;;;;;14.27;100.00;101439.31;5025400;28;20478;-60
2023/08/07 01:22:08;;;;;;;14.85;3.45;;;;;;;14.40;100.00;101439.69;5026729;28;20024;-65
2023/08/07 01:24:37;;;;;;;19.70;3.08;;;;;;;14.48;100.00;101426.94;5027749;28;20068;-64
2023/08/07 01:27:08;;;;;;;;;;;;;;;14.54;100.00;101441.75;5030198;28;20025;-66
2023/08/07 01:29:40;;;;;;;11.20;2.88;;;;;;;14.57;100.00;101452.22;5030370;28;19975;-64
2023/08/07 01:32:08;;;;;;;19.55;2.83;;;;;;;14.54;100.00;101455.00;5029742;28;20041;-60
2023/08/07 01:34:34;;;;;;;15.00;2.78;;;;;;;14.45;100.00;101448.28;5029750;28;20052;-65
2023/08/07 01:37:00;;;;;;;16.13;3.05;;;;;;;14.48;100.00;101456.13;5030139;28;20041;-64
2023/08/07 01:39:26;;;;;;;8.50;2.92;;;;;;;14.54;100.00;101457.66;5029028;28;20067;-65
2023/08/07 01:41:51;;;;;;;11.55;2.90;;;;;;;14.40;100.00;101464.41;5031084;28;20366;-64
2023/08/07 01:44:16;;;;;;;15.20;3.00;;;;;;;14.35;100.00;101466.38;5030081;28;20520;-62
2023/08/07 01:46:42;;;;;;;13.52;2.83;;;;;;;14.32;100.00;101442.63;5028784;28;20037;-64
2023/08/07 01:49:07;;;;;;;12.65;2.53;;;;;;;14.35;100.00;101450.47;5029816;28;20023;-64
2023/08/07 01:51:32;;;;;;;12.55;3.17;;;;;;;14.37;100.00;101442.44;5030328;28;20022;-62
2023/08/07 01:53:58;;;;;;;11.43;2.65;;;;;;;14.30;100.00;101439.16;5030510;28;20393;-64
2023/08/07 01:56:23;;;;;;;13.40;3.08;;;;;;;14.45;100.00;101440.34;5030499;28;20033;-65
2023/08/07 01:58:48;;;;;;;12.30;2.88;;;;;;;14.39;100.00;101436.16;5029809;28;20060;-65
2023/08/07 02:01:14;;;;;;;15.88;2.72;;;;;;;14.50;100.00;101446.31;5030408;28;20057;-65
2023/08/07 02:03:39;;;;;;;12.82;2.70;;;;;;;14.53;100.00;101445.34;5029824;28;20085;-64
2023/08/07 02:06:04;;;;;;;13.48;2.75;;;;;;;14.64;100.00;101442.25;5030345;28;20053;-65
2023/08/07 02:08:30;;;;;;;13.40;3.20;;;;;;;14.44;100.00;101445.69;5029809;28;20049;-60
2023/08/07 02:10:55;;;;;;;13.57;3.05;;;;;;;14.59;100.00;101449.50;5029948;28;20052;-65
2023/08/07 02:13:20;;;;;;;15.60;3.17;;;;;;;14.54;100.00;101449.69;5029494;28;20114;-64
2023/08/07 02:15:46;;;;;;;22.15;2.85;;;;;;;14.64;100.00;101442.25;5029751;28;20079;-66
2023/08/07 02:18:11;;;;;;;14.02;2.90;;;;;;;14.72;100.00;101460.50;5029807;28;20074;-66
2023/08/07 02:20:36;;;;;;;13.00;2.70;;;;;;;14.78;100.00;101436.41;5028860;28;20464;-64
2023/08/07 02:23:02;;;;;;;15.25;2.88;;;;;;;14.75;100.00;101449.75;5030108;28;20643;-65
2023/08/07 02:25:27;;;;;;;11.35;2.92;;;;;;;14.85;100.00;101451.13;5029862;28;20049;-66
2023/08/07 02:27:52;;;;;;;12.98;3.17;;;;;;;14.83;100.00;101446.78;5029881;28;20014;-61
2023/08/07 02:30:18;;;;;;;12.55;3.00;;;;;;;14.78;100.00;101453.16;5028761;28;20521;-61
2023/08/07 02:32:44;;;;;;;13.38;2.90;;;;;;;14.81;100.00;101446.84;5029612;28;20448;-64
2023/08/07 02:35:10;;;;;;;14.77;3.17;;;;;;;14.89;100.00;101443.88;5029519;28;20025;-67
2023/08/07 02:37:36;;;;;;;14.10;2.95;;;;;;;14.83;100.00;101442.38;5029213;28;20021;-64
2023/08/07 02:40:01;;;;;;;16.70;3.08;;;;;;;14.92;100.00;101446.41;5029542;28;20095;-66
2023/08/07 02:42:26;;;;;;;10.85;2.83;;;;;;;14.86;100.00;101457.28;5029144;28;20018;-64
2023/08/07 02:44:52;;;;;;;15.25;2.72;;;;;;;14.85;100.00;101451.13;5028924;28;20474;-66
2023/08/07 02:47:17;;;;;;;10.20;2.70;;;;;;;14.92;100.00;101475.59;5030317;28;20428;-62
2023/08/07 02:49:43;;;;;;;12.02;2.80;;;;;;;14.70;100.00;101503.00;5027960;28;20617;-62
2023/08/07 02:52:08;;;;;;;8.65;2.65;;;;;;;14.55;100.00;101469.13;5029538;28;20469;-66
2023/08/07 02:54:33;;;;;;;19.17;3.38;;;;;;;14.55;100.00;101458.53;5028519;28;20037;-60
2023/08/07 02:56:58;;;;;;;9.23;2.38;;;;;;;14.43;100.00;101462.53;5028687;28;20021;-60
2023/08/07 02:59:24;;;;;;;10.00;2.10;;;;;;;14.26;100.00;101461.41;5026854;28;20107;-63
2023/08/07 03:01:49;;;;;;;11.32;1.98;;;;;;;14.30;100.00;101465.66;5030319;28;20045;-63
2023/08/07 03:04:15;;;;;;;10.25;1.92;;;;;;;14.42;100.00;101453.72;5028783;28;20347;-58
2023/08/07 03:06:40;;;;;;;7.45;1.77;;;;;;;14.43;100.00;101455.47;5028574;28;20061;-61
2023/08/07 03:09:05;;;;;;;7.45;1.67;;;;;;;14.39;100.00;101462.66;5028707;28;20036;-61
2023/08/07 03:11:31;;;;;;;5.78;1.83;;;;;;;14.44;100.00;101456.31;5027703;28;20107;-63
2023/08/07 03:13:56;;;;;;;9.85;1.90;;;;;;;14.53;100.00;101463.88;5027961;28;20052;-64
2023/08/07 03:16:21;;;;;;;8.68;2.47;;;;;;;14.58;100.00;101463.72;5029442;28;20029;-60
2023/08/07 03:18:47;;;;;;;15.07;2.70;;;;;;;14.60;100.00;101468.00;5028273;28;20466;-58
2023/08/07 03:21:13;;;;;;;15.25;3.17;;;;;;;14.59;100.00;101453.03;5028488;28;20064;-65
2023/08/07 03:23:38;;;;;;;14.90;2.60;;;;;;;14.63;100.00;101449.31;5028423;28;20083;-60
2023/08/07 03:26:09;;;;;;;15.93;3.08;;;;;;;14.69;100.00;101455.31;5027933;28;20021;-65
2023/08/07 03:28:35;;;;;;;17.67;3.05;;;;;;;14.69;100.00;101460.63;5028028;28;20033;-65
2023/08/07 03:31:01;;;;;;;16.40;2.95;;;;;;;14.78;100.00;101449.66;5028140;28;20024;-64
2023/08/07 03:33:26;;;;;;;10.27;3.15;;;;;;;14.74;100.00;101446.25;5028633;28;20029;-62
2023/08/07 03:35:52;;;;;;;17.30;3.08;;;;;;;14.75;100.00;101457.72;5029349;28;20056;-62
2023/08/07 03:38:17;;;;;;;9.35;2.70;;;;;;;14.68;100.00;101466.84;5029099;28;20389;-60
2023/08/07 03:40:43;;;;;;;21.40;3.00;;;;;;;14.77;100.00;101453.19;5028110;28;20413;-62
2023/08/07 03:43:08;;;;;;;13.77;2.75;;;;;;;14.73;100.00;101451.59;5027023;28;20029;-65
2023/08/07 03:45:33;;;;;;;14.73;2.88;;;;;;;14.72;100.00;101450.72;5027544;28;20040;-64
2023/08/07 03:47:59;;;;;;;10.45;2.72;;;;;;;14.78;100.00;101469.09;5028816;28;20017;-65
2023/08/07 03:50:24;;;;;;;18.08;2.63;;;;;;;14.76;100.00;101454.13;5028020;28;20091;-64
2023/08/07 03:52:49;;;;;;;15.55;2.72;;;;;;;14.85;100.00;101460.88;5029375;28;20038;-66
2023/08/07 03:55:15;;;;;;;17.73;3.58;;;;;;;14.77;100.00;101451.41;5027477;28;20022;-65
2023/08/07 03:57:40;;;;;;;17.15;2.88;;;;;;;14.84;100.00;101460.00;5027443;28;20080;-63
2023/08/07 04:00:07;;;;;;;16.83;3.03;;;;;;;14.76;100.00;101468.28;5027466;28;20100;-63
2023/08/07 04:02:32;;;;;;;17.75;3.45;;;;;;;14.78;100.00;101457.63;5025948;28;20108;-64
2023/08/07 04:04:57;;;;;;;11.88;2.67;;;;;;;14.79;100.00;101459.34;5027582;28;20096;-62
2023/08/07 04:07:23;;;;;;;10.68;2.90;;;;;;;14.76;100.00;101456.78;5026440;28;20118;-64
2023/08/07 04:09:48;;;;;;;14.30;2.70;;;;;;;14.89;100.00;101452.72;5027880;28;20517;-64
2023/08/07 04:12:13;;;;;;;16.08;3.10;;;;;;;14.90;100.00;101449.13;5027309;28;20529;-64
2023/08/07 04:14:39;;;;;;;16.15;2.72;;;;;;;14.83;100.00;101458.28;5027267;28;20159;-62
2023/08/07 04:17:04;;;;;;;11.85;2.65;;;;;;;14.90;100.00;101454.44;5028332;28;20033;-63
2023/08/07 04:19:30;;;;;;;14.98;3.05;;;;;;;14.95;100.00;101454.25;5026739;28;20056;-63
2023/08/07 04:21:55;;;;;;;14.93;3.42;;;;;;;14.94;100.00;101456.97;5025755;28;20032;-62
2023/08/07 04:24:20;;;;;;;17.58;2.80;;;;;;;14.80;100.00;101458.41;5027692;28;20025;-61
2023/08/07 04:26:46;;;;;;;18.17;3.17;;;;;;;14.96;100.00;101474.53;5027251;28;20027;-66
2023/08/07 04:29:12;;;;;;;13.00;2.47;;;;;;;15.06;100.00;101475.03;5026643;28;20900;-62
2023/08/07 04:31:37;;;;;;;13.95;2.67;;;;;;;15.06;100.00;101469.72;5026489;28;20037;-57
2023/08/07 04:34:02;;;;;;;15.52;3.15;;;;;;;15.00;100.00;101467.31;5027790;28;20454;-61
2023/08/07 04:36:28;;;;;;;18.58;3.38;;;;;;;14.95;100.00;101472.81;5026622;28;20022;-61
2023/08/07 04:38:55;;;;;;;14.45;2.67;;;;;;;14.99;100.00;101481.53;5027544;28;20037;-62
2023/08/07 04:41:20;;;;;;;14.88;2.58;;;;;;;14.94;100.00;101483.50;5027706;28;20635;-60
2023/08/07 04:43:48;;;;;;;12.00;2.60;;;;;;;14.95;100.00;101490.53;5025524;28;20049;-62
2023/08/07 04:46:13;;;;;;;10.23;2.22;;;;;;;14.94;100.00;101475.53;5027308;28;20033;-64
2023/08/07 04:48:38;;;;;;;10.65;2.25;;;;;;;15.03;100.00;101486.59;5027934;28;20022;-59
2023/08/07 04:51:04;;;;;;;14.75;2.85;;;;;;;15.04;100.00;101492.78;5027307;28;20683;-63
2023/08/07 04:53:29;;;;;;;14.73;3.10;;;;;;;15.05;100.00;101483.91;5027080;28;20045;-64
2023/08/07 04:55:54;;;;;;;17.95;2.58;;;;;;;15.04;100.00;101498.09;5027287;28;20025;-63
2023/08/07 04:58:20;;;;;;;13.52;2.65;;;;;;;15.02;100.00;101497.31;5026679;28;20025;-61
2023/08/07 05:00:45;;;;;;;13.18;2.38;;;;;;;15.07;100.00;101508.59;5025894;28;20025;-62
2023/08/07 05:03:11;;;;;;;10.25;2.42;;;;;;;15.06;100.00;101506.88;5025670;28;20662;-63
2023/08/07 05:05:36;;;;;;;19.63;2.72;;;;;;;15.00;100.00;101497.38;5025462;28;20245;-63
2023/08/07 05:08:02;;;;;;;9.20;2.05;;;;;;;15.05;100.00;101499.81;5025291;28;20510;-63
2023/08/07 05:10:27;;;;;;;12.95;2.42;;;;;;;15.10;100.00;101508.47;5025504;28;20021;-63
2023/08/07 05:12:55;;;;;;;14.55;2.30;;;;;;;14.98;100.00;101524.88;5024959;28;20046;-61
2023/08/07 05:15:24;;;;;;;12.52;2.20;;;;;;;14.66;100.00;101535.88;5026015;28;20026;-58
2023/08/07 05:17:50;;;;;;;;;;;;;;;14.51;100.00;101532.91;5026299;28;20044;-63
2023/08/07 05:20:15;;;;;;;10.55;2.15;;;;;;;14.30;100.00;101523.97;5025275;28;19916;-63
2023/08/07 05:22:41;;;;;;;17.55;2.50;;;;;;;14.32;100.00;101523.94;5026042;28;20064;-61
2023/08/07 05:25:07;;;;;;;12.27;2.63;;;;;;;14.18;100.00;101527.97;5026123;28;20129;-63
2023/08/07 05:27:32;;;;;;;8.68;2.55;;;;;;;14.28;100.00;101523.19;5024299;28;20473;-65
2023/08/07 05:29:59;;;;;;;17.90;2.97;;;;;;;14.23;100.00;101519.84;5025670;28;20025;-66
2023/08/07 05:32:25;;;;;;;17.60;2.92;;;;;;;14.36;100.00;101521.09;5026318;28;20026;-65
2023/08/07 05:34:50;;;;;;;14.25;3.33;;;;;;;14.39;100.00;101517.50;5026721;28;20066;-65
2023/08/07 05:37:15;;;;;;;20.98;3.13;;;;;;;14.54;100.00;101523.94;5027018;28;20032;-63
2023/08/07 05:39:41;;;;;;;15.05;2.65;;;;;;;14.61;100.00;101520.16;5024902;28;20088;-64
2023/08/07 05:42:07;;;;;;;16.23;2.97;;;;;;;14.65;100.00;101542.97;5025320;28;20029;-64
2023/08/07 05:44:33;;;;;;;15.75;3.15;;;;;;;14.63;100.00;101518.28;5022901;28;20014;-62
2023/08/07 05:46:58;;;;;;;9.05;2.40;;;;;;;14.78;100.00;101529.25;5025265;28;20492;-61
2023/08/07 05:49:23;;;;;;;13.32;3.05;;;;;;;14.91;100.00;101529.59;5025600;28;20025;-62
2023/08/07 05:51:49;;;;;;;10.88;3.65;;;;;;;14.92;100.00;101531.31;5025584;28;20025;-61
2023/08/07 05:54:14;;;;;;;15.85;2.63;;;;;;;15.07;100.00;101532.47;5024768;28;20432;-63
2023/08/07 05:56:40;;;;;;;18.65;3.42;;;;;;;14.94;100.00;101531.25;5025189;28;20547;-64
2023/08/07 05:59:06;;;;;;;18.45;3.20;;;;;;;15.01;100.00;101536.25;5024233;28;20477;-65
2023/08/07 06:01:31;;;;;;;17.65;2.80;;;;;;;15.01;100.00;101546.88;5023501;28;20075;-67
2023/08/07 06:03:59;;;;;;;13.80;2.65;;;;;;;14.88;100.00;101548.31;5025316;28;20466;-65
2023/08/07 06:06:27;;;;;;;17.73;3.40;;;;;;;14.86;100.00;101556.31;5024928;28;20472;-65
2023/08/07 06:08:53;;;;;;;14.93;2.78;;;;;;;14.66;100.00;101557.94;5014539;28;20405;-66
2023/08/07 06:11:18;;;;;;;11.20;2.55;;;;;;;14.70;100.00;101564.00;5018439;28;20064;-64
2023/08/07 06:13:44;;;;;;;9.70;2.50;;;;;;;14.68;100.00;101560.53;5023487;28;20120;-64
2023/08/07 06:16:09;;;;;;;10.23;2.72;;;;;;;14.56;100.00;101564.53;5017123;28;20022;-63
2023/08/07 06:18:36;;;;;;;11.95;2.72;;;;;;;14.44;100.00;101570.31;5018775;28;20029;-64
2023/08/07 06:21:02;;;;;;;15.38;2.72;;;;;;;14.40;100.00;101566.94;5020136;28;20044;-68
2023/08/07 06:23:27;;;;;;;13.68;2.88;;;;;;;14.52;100.00;101566.47;5017543;28;20026;-66
2023/08/07 06:25:52;;;;;;;17.08;3.10;;;;;;;14.58;100.00;101564.47;5018111;28;20507;-64
2023/08/07 06:28:18;;;;;;;15.38;2.72;;;;;;;14.80;100.00;101567.19;5015981;28;20462;-63
2023/08/07 06:30:43;;;;;;;14.80;3.15;;;;;;;14.85;100.00;101567.88;5021253;28;20049;-67
2023/08/07 06:33:09;;;;;;;14.18;2.88;;;;;;;14.87;100.00;101571.31;5025827;28;20032;-71
2023/08/07 06:35:38;;;;;;;13.82;3.10;;;;;;;14.85;100.00;101567.88;5019227;28;20498;-67
2023/08/07 06:38:04;;;;;;;13.27;2.45;;;;;;;14.78;100.00;101584.97;5018224;28;20033;-67
2023/08/07 06:40:30;;;;;;;12.18;2.65;;;;;;;14.82;100.00;101583.91;5016803;28;20020;-62
2023/08/07 06:42:55;;;;;;;13.23;2.10;;;;;;;14.91;100.00;101585.31;5014951;28;20028;-68
2023/08/07 06:45:20;;;;;;;12.25;2.45;;;;;;;14.98;100.00;101584.16;5009821;28;20109;-66
2023/08/07 06:47:46;;;;;;;11.98;2.70;;;;;;;15.08;100.00;101587.28;5008678;28;20014;-67
2023/08/07 06:50:13;;;;;;;17.13;2.95;;;;;;;15.16;100.00;101574.56;5008471;28;20528;-63
2023/08/07 06:52:38;;;;;;;8.90;2.17;;;;;;;15.31;100.00;101577.50;5012497;28;20022;-67
2023/08/07 06:55:04;;;;;;;12.80;2.80;;;;;;;15.40;100.00;101573.59;5028086;28;20022;-65
2023/08/07 06:57:29;;;;;;;11.13;2.58;;;;;;;15.49;100.00;101573.19;5026238;28;20029;-68
2023/08/07 06:59:54;;;;;;;10.10;2.50;;;;;;;15.72;100.00;101587.28;5027501;28;20450;-68
2023/08/07 07:02:20;;;;;;;13.95;3.03;;;;;;;15.76;100.00;101582.69;5027886;28;20475;-61
2023/08/07 07:04:45;;;;;;;9.95;2.28;;;;;;;15.89;100.00;101594.50;5026964;28;20053;-68
2023/08/07 07:07:10;;;;;;;10.73;2.50;;;;;;;16.17;100.00;101590.63;5027829;28;20029;-67
2023/08/07 07:09:36;;;;;;;15.15;2.33;;;;;;;16.27;100.00;101606.16;5027930;28;20470;-68
2023/08/07 07:12:01;;;;;;;14.43;2.63;;;;;;;16.27;100.00;101600.84;5027785;28;20077;-64
2023/08/07 07:14:27;;;;;;;19.80;2.85;;;;;;;16.40;100.00;101617.97;5026689;28;20099;-68
2023/08/07 07:16:52;;;;;;;10.95;2.30;;;;;;;16.42;100.00;101604.59;5027845;28;20033;-60
2023/08/07 07:19:18;;;;;;;7.85;2.75;;;;;;;16.33;100.00;101627.16;5028306;28;20131;-67
2023/08/07 07:21:44;;;;;;;10.73;2.42;;;;;;;16.38;100.00;101609.16;5027534;28;20035;-67
2023/08/07 07:24:09;;;;;;;9.23;2.30;;;;;;;16.26;100.00;101613.25;5025975;28;20025;-68
2023/08/07 07:26:34;;;;;;;7.95;2.15;;;;;;;16.36;100.00;101616.38;5027443;28;20025;-67
2023/08/07 07:29:00;;;;;;;9.40;2.25;;;;;;;16.42;100.00;101615.22;5026119;28;20033;-63
2023/08/07 07:31:25;;;;;;;8.15;2.38;;;;;;;16.50;100.00;101630.84;5027530;28;20072;-65
2023/08/07 07:33:50;;;;;;;10.05;2.22;;;;;;;16.67;100.00;101625.56;5027726;28;20446;-67
2023/08/07 07:36:17;;;;;;;10.77;2.38;;;;;;;16.77;100.00;101641.13;5026019;28;20033;-61
2023/08/07 07:38:43;;;;;;;14.00;2.05;;;;;;;16.71;100.00;101615.66;5026598;28;20045;-63
2023/08/07 07:41:11;;;;;;;13.70;2.30;;;;;;;16.71;100.00;101621.00;5025895;28;20021;-64
2023/08/07 07:43:36;;;;;;;11.50;2.20;;;;;;;16.84;100.00;101639.88;5026061;28;20389;-63
2023/08/07 07:46:02;;;;;;;15.45;2.83;;;;;;;16.82;100.00;101632.91;5026384;28;20029;-65
2023/08/07 07:48:27;;;;;;;12.90;2.22;;;;;;;16.85;100.00;101654.91;5027168;28;20033;-66
2023/08/07 07:51:01;;;;;;;11.82;1.80;;;;;;;16.87;100.00;101642.41;5026735;28;20448;-64
2023/08/07 07:53:26;;;;;;;14.95;2.30;;;;;;;16.79;100.00;101666.72;5027367;28;20028;-64
2023/08/07 07:55:52;;;;;;;9.93;2.17;;;;;;;16.89;100.00;101667.13;5025816;28;20038;-63
2023/08/07 07:58:17;;;;;;;10.80;2.38;;;;;;;17.01;100.00;101643.53;5024789;28;20113;-67
2023/08/07 08:00:42;;;;;;;14.02;2.22;;;;;;;17.09;100.00;101665.34;5025833;28;20382;-67
2023/08/07 08:03:08;;;;;;;10.27;2.42;;;;;;;17.16;100.00;101665.94;5024092;28;20057;-66
2023/08/07 08:05:34;;;;;;;12.30;2.38;;;;;;;17.26;100.00;101635.25;5025612;28;20025;-61
2023/08/07 08:08:01;;;;;;;16.75;2.72;;;;;;;17.23;100.00;101638.06;5025642;28;20017;-66
2023/08/07 08:10:29;;;;;;;8.57;1.90;;;;;;;17.23;100.00;101646.03;5026200;28;20033;-64
2023/08/07 08:12:55;;;;;;;8.17;1.73;;;;;;;17.35;100.00;101644.56;5025287;28;20105;-62
2023/08/07 08:15:21;;;;;;;13.40;2.47;;;;;;;17.47;100.00;101660.88;5027527;28;20287;-65
2023/08/07 08:17:47;;;;;;;7.57;1.98;;;;;;;17.49;100.00;101659.00;5026892;28;20409;-63
2023/08/07 08:20:15;;;;;;;7.28;1.95;;;;;;;17.58;100.00;101661.19;5026271;28;20103;-63
2023/08/07 08:22:41;;;;;;;6.47;1.75;;;;;;;17.36;100.00;101667.59;5025048;28;20033;-66
2023/08/07 08:25:06;;;;;;;11.65;2.25;;;;;;;17.32;100.00;101682.00;5026062;28;20041;-64
2023/08/07 08:27:32;;;;;;;10.27;2.17;;;;;;;16.90;100.00;101673.31;5023770;28;20021;-65
2023/08/07 08:29:57;;;;;;;9.55;1.60;;;;;;;16.93;100.00;101682.03;5025590;28;20036;-65
2023/08/07 08:32:22;;;;;;;9.30;2.00;;;;;;;17.09;100.00;101707.06;5025237;28;20108;-61
2023/08/07 08:34:49;;;;;;;5.72;1.55;;;;;;;17.12;100.00;101682.97;5025686;28;20052;-64
2023/08/07 08:37:15;;;;;;;12.48;2.10;;;;;;;17.27;100.00;101684.03;5026858;28;20109;-68
2023/08/07 08:39:40;;;;;;;11.27;1.90;;;;;;;17.43;100.00;101685.00;5027506;28;20108;-64
2023/08/07 08:42:06;;;;;;;9.63;2.28;;;;;;;17.53;100.00;101684.53;5025164;28;20401;-62
2023/08/07 08:44:37;;;;;;;7.07;1.63;;;;;;;17.70;100.00;101683.69;5024834;28;20029;-60
2023/08/07 08:47:03;;;;;;;9.05;2.08;;;;;;;17.65;100.00;101694.59;5023350;28;20401;-64
2023/08/07 08:49:33;;;;;;;7.65;1.77;;;;;;;17.64;100.00;101700.84;5022995;28;20029;-66
2023/08/07 08:51:59;;;;;;;8.73;2.03;;;;;;;17.88;100.00;101692.53;5024349;28;20026;-62
2023/08/07 08:54:25;;;;;;;11.35;2.10;;;;;;;18.05;100.00;101707.69;5024148;28;20030;-62
2023/08/07 08:56:51;;;;;;;6.25;1.75;;;;;;;18.12;99.87;101692.25;5018385;28;20045;-65
2023/08/07 08:59:18;;;;;;;10.15;2.00;;;;;;;18.30;100.00;101693.06;5020698;28;20420;-64
2023/08/07 09:01:45;;;;;;;10.40;1.92;;;;;;;18.28;96.88;101704.78;5019999;28;20029;-63
2023/08/07 09:04:10;;;;;;;10.55;1.90;;;;;;;18.33;nan;101701.88;5013147;28;20075;-61
2023/08/07 09:06:36;;;;;;;7.78;1.95;;;;;;;18.42;99.60;101696.91;5018216;28;20109;-62
2023/08/07 09:09:02;;;;;;;7.65;1.70;;;;;;;18.64;100.00;101698.41;5022016;28;20025;-64
2023/08/07 09:11:27;;;;;;;5.80;1.67;;;;;;;18.61;99.47;101703.06;5018866;28;20030;-63
2023/08/07 09:13:54;;;;;;;7.90;2.03;;;;;;;18.72;100.00;101702.47;5022024;28;20040;-64
2023/08/07 09:16:19;;;;;;;11.15;2.00;;;;;;;18.81;100.00;101709.94;5015205;28;20068;-65
2023/08/07 09:18:45;;;;;;;5.72;1.70;;;;;;;18.60;97.29;101712.84;5014211;28;20136;-61
2023/08/07 09:21:11;;;;;;;8.43;1.90;;;;;;;18.49;98.15;101713.44;5017007;28;20029;-61
2023/08/07 09:23:36;;;;;;;12.00;2.20;;;;;;;18.32;98.58;101717.00;5018590;28;20087;-61
2023/08/07 09:26:03;;;;;;;10.55;2.13;;;;;;;18.33;96.70;101718.72;5014593;28;20462;-59
2023/08/07 09:28:32;;;;;;;8.25;1.95;;;;;;;18.30;97.73;101713.53;5014547;28;20021;-62
2023/08/07 09:30:58;;;;;;;6.28;1.85;;;;;;;18.26;99.73;101717.31;5015593;28;20462;-64
2023/08/07 09:33:28;;;;;;;7.75;1.90;;;;;;;18.12;98.26;101726.91;5013737;28;20415;-63
2023/08/07 09:35:58;;;;;;;8.27;1.92;;;;;;;18.09;100.00;101721.69;5013377;28;20076;-60
2023/08/07 09:38:23;;;;;;;13.60;1.73;;;;;;;18.16;100.00;101731.16;5016750;28;20030;-61
2023/08/07 09:40:49;;;;;;;8.70;2.13;;;;;;;18.53;100.00;101724.81;5017184;28;20033;-63
2023/08/07 09:43:21;;;;;;;7.47;1.73;;;;;;;18.64;100.00;101730.44;5024549;28;20025;-60
2023/08/07 09:45:47;;;;;;;6.88;1.95;;;;;;;18.69;97.26;101733.72;5004430;28;20087;-64
2023/08/07 09:48:13;;;;;;;13.20;2.17;;;;;;;18.76;95.47;101731.59;5023365;28;20026;-62
2023/08/07 09:50:38;;;;;;;6.70;1.48;;;;;;;18.81;94.62;101732.19;5026724;28;20438;-62
2023/08/07 09:53:04;;;;;;;6.72;1.83;;;;;;;18.71;96.46;101730.97;5023517;28;20053;-63
2023/08/07 09:55:31;;;;;;;7.68;1.55;;;;;;;18.84;98.01;101749.84;5025429;28;20076;-64
2023/08/07 09:57:56;;;;;;;5.78;1.80;;;;;;;18.71;95.23;101740.75;5023547;28;20389;-62
2023/08/07 10:00:22;;;;;;;9.35;2.05;;;;;;;18.63;96.24;101749.22;5029413;28;20021;-64
2023/08/07 10:02:48;;;;;;;6.97;1.50;;;;;;;18.65;94.33;101740.16;5029066;28;20501;-65
2023/08/07 10:05:14;;;;;;;10.15;1.65;;;;;;;18.82;93.93;101746.41;5028550;28;20540;-63
2023/08/07 10:07:40;;;;;;;7.53;1.63;;;;;;;18.85;94.02;101748.03;5028795;28;20029;-64
2023/08/07 10:10:06;;;;;;;12.18;1.80;;;;;;;18.74;91.15;101764.63;5028915;28;20096;-63
2023/08/07 10:12:32;;;;;;;6.07;1.70;;;;;;;18.88;94.08;101755.88;5026999;28;20052;-60
2023/08/07 10:14:59;;;;;;;7.18;1.75;;;;;;;18.92;92.32;101747.63;5029095;28;20022;-64
2023/08/07 10:17:25;;;;;;;8.00;1.77;;;;;;;19.03;93.53;101752.34;5028218;28;20036;-61
2023/08/07 10:19:53;;;;;;;8.65;2.22;;;;;;;18.84;92.49;101744.50;5028513;28;20018;-62
2023/08/07 10:22:19;;;;;;;4.97;1.48;;;;;;;18.85;92.56;101762.25;5027595;28;20021;-63
2023/08/07 10:24:48;;;;;;;7.32;1.85;;;;;;;18.93;95.60;101753.81;5028098;28;20084;-61
2023/08/07 10:27:15;;;;;;;8.88;1.77;;;;;;;18.92;94.26;101762.78;5027553;28;20026;-60
2023/08/07 10:29:42;;;;;;;8.27;1.60;;;;;;;18.93;90.59;101754.69;5027523;28;20033;-65
2023/08/07 10:32:07;;;;;;;4.07;1.50;;;;;;;19.02;90.85;101753.31;5027167;28;20108;-60
2023/08/07 10:34:34;;;;;;;7.32;1.58;;;;;;;19.06;88.38;101756.69;5022396;28;20448;-63
2023/08/07 10:36:59;;;;;;;3.60;1.20;;;;;;;18.95;88.08;101765.28;5020649;28;20108;-61
2023/08/07 10:39:26;;;;;;;8.50;1.33;;;;;;;19.07;90.54;101779.75;5023986;28;20342;-63
2023/08/07 10:41:55;;;;;;;6.85;1.80;;;;;;;19.10;88.95;101758.25;5027898;28;20129;-62
2023/08/07 10:44:24;;;;;;;6.78;1.75;;;;;;;19.22;87.91;101777.22;5020994;28;20436;-61
2023/08/07 10:46:55;;;;;;;6.00;1.65;;;;;;;19.21;88.42;101768.34;5015441;28;20109;-62
2023/08/07 10:49:34;;;;;;;7.65;1.90;;;;;;;19.51;88.90;101772.88;5027288;28;20029;-62
2023/08/07 10:52:11;;;;;;;6.60;1.70;;;;;;;19.60;89.95;101763.50;5021043;28;20396;-60
2023/08/07 10:54:44;;;;;;;4.35;1.77;;;;;;;19.82;89.79;101768.47;5019876;28;20061;-61
2023/08/07 10:57:16;;;;;;;2.45;1.40;;;;;;;20.03;83.87;101776.19;5022682;28;20025;-62
2023/08/07 10:59:56;;;;;;;6.72;1.88;;;;;;;19.59;86.56;101777.78;5023273;28;20029;-61
2023/08/07 11:02:26;;;;;;;3.10;1.52;;;;;;;19.50;88.10;101781.03;5017469;28;20022;-61
2023/08/07 11:04:52;;;;;;;8.73;1.77;;;;;;;19.75;88.70;101776.91;5025150;28;20455;-62
2023/08/07 11:07:29;;;;;;;5.90;1.48;;;;;;;19.93;87.02;101791.03;5044958;28;20524;-61
2023/08/07 11:09:55;;;;;;;6.85;1.92;;;;;;;19.97;82.56;101771.16;5020273;28;20040;-59